Latest Coastal Weather Observations for Mackay

IDQ60701

Issued at 7:21 pm EST Saturday 6 February 2016 (issued every 10 minutes, with the page automatically refreshed every 10 minutes)

About coastal observations | Map of coastal stations | Coastal observations for QLD | Marine services | Other Formats
Station Details ID: 033119 Name: MACKAY M.O Lat: -21.12 Lon: 149.22 Height: 30.26 m
Data from the previous 72 hours. | See also: Recent months at Mackay
Date/Time
EST
Temp

°C
Wind Pressure Rain
since 9am
mm
Weather Cloud Vis
km
Sea
Height
m
Swell
Dir
 
Speed
knots
Gust
knots
hPa Trend Height
m
Period
s
Dir
06/07:00pm 26.7 ESE 6 9 1005.1 - 17.4 - Partly cloudy - - - - -
06/06:30pm 26.5 SSE 6 9 1004.5 - 11.2 - Partly cloudy - - - - -
06/06:27pm 26.5 SE 6 9 1004.5 - 10.6 - Partly cloudy - - - - -
06/06:14pm 26.7 ESE 7 12 1004.1 - 6.8 - Partly cloudy - - - - -
06/06:00pm 26.8 E 8 12 1003.7 R 6.4 Rain Cloudy - - - - -
06/05:51pm 27.1 E 8 12 1003.7 - 3.0 - Partly cloudy - - - - -
06/05:30pm 27.5 ESE 7 13 1003.4 - 0.8 - Partly cloudy - - - - -
06/05:00pm 28.1 ESE 8 12 1002.9 - 0.0 - Partly cloudy 10 - - - -
06/04:30pm 28.9 ESE 7 11 1002.6 - 0.0 - Partly cloudy 10 - - - -
06/04:00pm 28.9 ESE 7 11 1002.6 - 0.0 - Mostly clear 10 - - - -
06/03:30pm 29.4 ESE 8 12 1002.8 - 0.0 - Partly cloudy 10 - - - -
06/03:00pm 29.7 ESE 7 11 1003.3 R 0.0 Fine Mostly cloudy 20 - - - -
06/02:30pm 29.5 ESE 8 11 1003.3 - 0.0 - Partly cloudy 10 - - - -
06/02:00pm 29.6 E 7 11 1003.7 - 0.0 - Mostly clear 10 - - - -
06/01:30pm 29.4 ESE 7 11 1003.8 - 0.0 - Mostly clear 10 - - - -
06/01:00pm 29.4 E 7 10 1003.8 - 0.0 - Mostly clear 10 - - - -
06/12:30pm 29.3 E 8 11 1004.3 - 0.0 - Mostly clear 10 - - - -
06/12:00pm 29.2 E 8 11 1004.6 R 0.0 Distant precip. Mostly cloudy 20 - - - -
06/11:30am 29.3 E 9 15 1004.9 - 0.0 - Mostly clear 10 - - - -
06/11:00am 29.4 ENE 11 15 1005.1 - 0.0 - Partly cloudy - - - - -
06/10:47am 29.2 E 11 14 1005.1 - 0.0 - Partly cloudy - - - - -
06/10:33am 28.6 E 9 14 1005.1 - 0.0 - Partly cloudy - - - - -
06/10:30am 28.8 E 9 14 1005.0 - 0.0 - Mostly clear 10 - - - -
06/10:00am 29.0 E 8 11 1004.9 - 0.0 - Mostly clear 10 - - - -
06/09:30am 28.7 ENE 6 9 1005.0 - 0.0 - Mostly clear 10 - - - -
06/09:00am 27.9 ENE 5 7 1004.9 S 108.4 Distant precip. Cloudy 15 - - - -
06/08:30am 26.7 SE 6 10 1004.4 - 108.2 - Partly cloudy 10 - - - -
06/08:00am 26.1 SSE 9 15 1003.4 - 108.2 - Partly cloudy 10 - - - -
06/07:30am 25.7 ESE 6 10 1003.2 - 108.2 - Partly cloudy 10 - - - -
06/07:00am 25.5 ESE 6 9 1003.5 - 108.0 - Partly cloudy 10 - - - -
06/06:30am 25.3 ESE 6 9 1003.5 - 108.0 Rain Mostly clear 10 - - - -
06/06:00am 25.4 E 7 11 1003.5 R 108.0 Showers Cloudy 15 - - - -
06/05:30am 25.3 ESE 6 10 1003.2 - 107.6 - Partly cloudy - - - - -
06/05:00am 25.1 ESE 7 12 1002.3 - 107.2 - Partly cloudy - - - - -
06/04:30am 25.3 ESE 9 14 1002.0 - 105.0 - Partly cloudy - - - - -
06/04:25am 25.5 ESE 9 14 1002.0 - 104.6 - Partly cloudy - - - - -
06/04:00am 25.6 E 8 14 1001.9 - 102.4 - Partly cloudy - - - - -
06/03:59am 25.8 E 8 13 1002.0 - 102.4 - Partly cloudy - - - - -
06/03:30am 25.5 E 11 17 1002.2 - 98.2 - Partly cloudy - - - - -
06/03:00am 25.7 E 14 21 1002.2 - 91.8 Rain Cloudy - - - - -
06/02:30am 26.0 ESE 12 20 1001.8 - 89.2 - Partly cloudy - - - - -
06/02:00am 25.8 ESE 12 19 1001.8 - 87.0 - Partly cloudy - - - - -
06/01:31am 26.0 SE 13 21 1002.3 - 82.6 - Partly cloudy - - - - -
06/01:30am 26.0 SE 13 21 1002.3 - 82.6 - Partly cloudy - - - - -
06/01:09am 25.6 SE 14 21 1001.8 - 81.2 - Partly cloudy - - - - -
06/01:00am 25.7 SE 14 23 1001.7 - 80.4 - Partly cloudy - - - - -
06/12:44am 25.8 ESE 15 25 1002.0 - 79.2 - Partly cloudy - - - - -
06/12:30am 25.9 SE 13 23 1002.4 - 78.6 - Partly cloudy - - - - -
06/12:05am 25.5 SE 15 25 1002.8 - 78.0 - Partly cloudy - - - - -
06/12:00am 25.9 SE 15 24 1002.8 - 77.8 Rain Cloudy - - - - -
 
Date/Time
EST
Temp

°C
Wind Pressure Rain
since 9am
mm
Weather Cloud Vis
km
Sea
Height
m
Swell
Dir
 
Speed
knots
Gust
knots
hPa Trend Height
m
Period
s
Dir
05/11:36pm 25.6 SE 17 24 1003.0 - 76.2 - Partly cloudy - - - - -
05/11:30pm 26.1 ESE 17 26 1003.1 - 75.6 - Partly cloudy - - - - -
05/11:16pm 25.6 ESE 15 26 1002.8 - 75.4 - Partly cloudy - - - - -
05/11:00pm 24.9 SE 17 29 1003.4 - 74.8 - Partly cloudy - - - - -
05/10:48pm 26.1 SE 15 25 1003.4 - 74.0 - Partly cloudy - - - - -
05/10:30pm 25.6 SSE 15 22 1004.2 - 70.4 - Partly cloudy - - - - -
05/10:00pm 26.3 SE 18 31 1003.5 - 66.4 - Partly cloudy - - - - -
05/09:36pm 26.0 S 17 27 1003.7 - 54.4 - Partly cloudy - - - - -
05/09:30pm 25.7 SSE 15 24 1004.0 - 53.6 - Partly cloudy - - - - -
05/09:05pm 26.0 SSE 8 13 1004.2 - 47.8 - Partly cloudy - - - - -
05/09:00pm 25.8 S 9 16 1004.4 R 46.4 Rain Cloudy - - - - -
05/08:47pm 25.8 S 10 14 1003.9 - 43.4 - Partly cloudy - - - - -
05/08:34pm 25.8 SSE 10 15 1004.3 - 38.0 - Partly cloudy - - - - -
05/08:30pm 25.8 S 11 15 1004.3 - 34.8 - Partly cloudy - - - - -
05/08:08pm 26.0 S 7 10 1004.1 - 24.0 - Partly cloudy - - - - -
05/08:00pm 25.9 SSW 9 12 1004.0 - 22.0 - Partly cloudy - - - - -
05/07:57pm 25.9 SSW 9 12 1003.9 - 21.0 - Partly cloudy - - - - -
05/07:53pm 25.8 S 9 14 1003.9 - 20.0 - Partly cloudy - - - - -
05/07:30pm 25.8 SSW 6 11 1003.7 - 15.6 - Partly cloudy - - - - -
05/07:22pm 25.8 SSW 6 11 1003.6 - 13.8 - Partly cloudy - - - - -
05/07:00pm 26.8 N 6 10 1003.1 - 11.8 - Partly cloudy - - - - -
05/06:54pm 26.9 N 7 11 1002.9 - 11.4 - Partly cloudy - - - - -
05/06:30pm 27.3 NNE 7 12 1002.3 - 10.4 - Partly cloudy - - - - -
05/06:00pm 27.2 NNE 8 13 1001.7 R 8.6 Rain Cloudy - - - - -
05/05:30pm 27.4 NNE 6 9 1001.4 - 8.2 - Partly cloudy - - - - -
05/05:00pm 27.5 NNE 7 11 1001.1 - 7.2 - Partly cloudy - - - - -
05/04:30pm 27.8 NE 6 9 1000.9 - 2.2 - Cloudy - - - - -
05/04:24pm 27.8 NE 6 10 1001.0 - 2.2 - Cloudy - - - - -
05/04:00pm 28.9 NNE 6 10 1001.2 - 0.8 - Mostly clear 10 - - - -
05/03:30pm 30.2 NNE 7 11 1001.0 - 0.8 - Mostly clear 10 - - - -
05/03:00pm 31.3 NE 7 12 1000.9 F 0.8 Thunder Mostly cloudy 25 - - - -
05/02:30pm 32.4 NNE 6 11 1001.5 - 0.8 - Partly cloudy 10 - - - -
05/02:00pm 31.7 NNE 7 12 1002.0 - 0.8 - - - - - - -
05/01:30pm 31.0 NNE 7 11 1002.3 - 0.8 - Partly cloudy 10 - - - -
05/01:00pm 31.4 NNE 7 10 1002.5 - 0.8 - Partly cloudy 10 - - - -
05/12:30pm 32.0 NE 7 13 1002.6 - 0.8 - Mostly clear 10 - - - -
05/12:00pm 31.9 NNE 8 12 1002.9 F 0.8 Distant precip. Mostly cloudy 25 - - - -
05/11:30am 31.0 NNE 6 10 1003.4 - 0.8 - Partly cloudy - - - - -
05/11:00am 29.6 NNE 5 9 1003.7 - 0.8 - Partly cloudy 10 - - - -
05/10:30am 29.0 NNE 6 11 1004.0 - 0.6 - Partly cloudy 10 - - - -
05/10:00am 29.2 NNE 6 10 1004.2 - 0.6 - Partly cloudy 10 - - - -
05/09:30am 28.2 NE 5 9 1004.3 - 0.6 - Partly cloudy 10 - - - -
05/09:00am 28.5 NNE 5 8 1004.3 R 1.8 Distant precip. Mostly cloudy 18 - - - -
05/08:53am 27.9 NNE 6 10 1004.3 - 1.8 - Partly cloudy - - - - -
05/08:30am 27.3 NE 5 9 1004.3 - 1.8 - Partly cloudy 10 - - - -
05/08:17am 27.3 NNE 6 10 1004.3 - 1.8 - Partly cloudy - - - - -
05/08:00am 27.3 NE 5 9 1004.1 - 1.8 - Partly cloudy 10 - - - -
05/07:30am 27.2 NNE 3 5 1003.7 - 1.8 - Partly cloudy 10 - - - -
05/07:00am 26.6 NE 4 7 1003.3 - 1.8 - Partly cloudy 10 - - - -
05/06:34am 26.3 ENE 3 6 1002.9 - 1.8 - Partly cloudy - - - - -
05/06:30am 26.0 NNE 1 6 1002.9 - 1.8 - Partly cloudy - - - - -
05/06:00am 25.5 CALM 0 3 1002.5 R 1.8 Haze Mostly cloudy 20 - - - -
05/05:30am 25.3 NW 3 4 1002.1 - 1.8 - - - - - - -
05/05:00am 25.3 NW 4 5 1001.9 - 1.8 - Partly cloudy - - - - -
05/04:30am 25.2 NW 3 4 1001.5 - 1.8 - - - - - - -
05/04:00am 25.3 NNW 4 5 1001.3 - 1.8 - - - - - - -
05/03:30am 25.3 NNW 3 4 1001.1 - 1.8 - - - - - - -
05/03:00am 25.3 N 4 5 1001.1 - 1.8 - Cloudy - - - - -
05/02:30am 25.3 CALM 0 0 1001.5 - 1.8 - - - - - - -
05/02:00am 25.4 SSE 3 4 1001.7 - 1.8 - - - - - - -
05/01:30am 25.4 SSW 3 4 1002.3 - 1.8 - Partly cloudy - - - - -
05/01:00am 25.3 SW 4 4 1002.5 - 1.8 - Partly cloudy - - - - -
05/12:30am 25.4 SW 5 7 1002.7 - 1.8 - Partly cloudy - - - - -
05/12:00am 25.5 SW 4 5 1003.4 - 1.8 Rain Cloudy - - - - -
 
Date/Time
EST
Temp

°C
Wind Pressure Rain
since 9am
mm
Weather Cloud Vis
km
Sea
Height
m
Swell
Dir
 
Speed
knots
Gust
knots
hPa Trend Height
m
Period
s
Dir
04/11:30pm 25.5 WSW 6 8 1003.7 - 1.4 - Partly cloudy - - - - -
04/11:00pm 25.6 SW 6 8 1004.3 - 1.0 - Partly cloudy - - - - -
04/10:30pm 26.0 SSW 7 10 1004.2 - 0.6 - Partly cloudy - - - - -
04/10:00pm 26.9 SSW 6 11 1004.2 - 0.6 - Partly cloudy - - - - -
04/09:30pm 28.3 W 3 5 1004.0 - 0.6 - Partly cloudy - - - - -
04/09:00pm 28.2 NNW 6 8 1004.2 R 0.6 - Cloudy - - - - -
04/08:30pm 28.1 N 7 11 1003.4 - 0.6 - Partly cloudy - - - - -
04/08:00pm 28.1 N 7 14 1003.2 - 0.6 - Partly cloudy - - - - -
04/07:30pm 28.1 N 7 11 1002.9 - 0.6 - Partly cloudy - - - - -
04/07:00pm 28.1 N 11 17 1002.4 - 0.6 - - - - - - -
04/06:30pm 28.2 N 9 14 1002.3 - 0.6 - - - - - - -
04/06:00pm 28.5 N 9 15 1001.8 F 0.6 - Mostly clear - - - - -
04/05:30pm 28.7 N 9 16 1001.5 - 0.6 - - - - - - -
04/05:00pm 29.4 N 10 16 1001.3 - 0.6 - Partly cloudy 10 - - - -
04/04:30pm 29.6 N 10 17 1001.3 - 0.6 - Partly cloudy 10 - - - -
04/04:00pm 29.4 N 10 14 1001.2 - 0.6 - Mostly clear 10 - - - -
04/03:30pm 30.4 N 10 15 1001.4 - 0.6 - Partly cloudy 10 - - - -
04/03:00pm 31.8 N 9 14 1001.8 F 0.6 Fine Mostly cloudy 18 - - - -
04/02:30pm 30.0 N 8 13 1002.3 - 0.6 - Partly cloudy 10 - - - -
04/02:00pm 29.8 N 9 13 1002.9 - 0.6 - Partly cloudy 10 - - - -
04/01:30pm 29.0 N 7 11 1003.3 - 0.6 - Partly cloudy - - - - -
04/01:00pm 28.9 NNW 7 12 1003.5 - 0.6 - Partly cloudy 10 - - - -
04/12:30pm 28.3 N 10 15 1003.6 - 0.4 - Partly cloudy 10 - - - -
04/12:00pm 27.6 N 9 15 1003.8 F 0.4 Distant precip. Mostly cloudy 18 - - - -
04/11:30am 26.8 N 10 15 1004.0 - 0.4 - Mostly clear 10 - - - -
04/11:00am 26.3 N 8 13 1004.4 - 0.4 - Partly cloudy 10 - - - -
04/10:30am 25.5 N 8 13 1004.5 - 0.4 - Mostly clear 10 - - - -
04/10:00am 25.6 N 8 13 1005.1 - 0.4 - Mostly clear 10 - - - -
04/09:30am 25.7 NW 7 11 1005.5 - 0.0 - Mostly clear 10 - - - -
04/09:00am 25.6 NW 5 7 1005.2 F 7.0 Distant precip. Mostly cloudy 18 - - - -
04/08:33am 25.3 N 6 9 1004.6 - 7.0 - Partly cloudy - - - - -
04/08:30am 25.3 N 6 9 1004.7 - 7.0 - Partly cloudy 10 - - - -
04/08:20am 25.8 NNE 7 12 1004.7 - 7.0 - Partly cloudy 10 - - - -
04/08:00am 25.3 N 5 10 1004.7 - 7.0 - Mostly clear 10 - - - -
04/07:30am 25.2 NNE 4 6 1004.9 - 7.0 - Mostly clear 10 - - - -
04/07:00am 25.1 ENE 4 6 1004.7 - 7.0 - Mostly clear 10 - - - -
04/06:30am 24.6 NE 2 5 1005.1 - 6.8 Thunder Mostly clear 10 - - - -
04/06:00am 24.4 NW 5 6 1005.4 R 5.4 Thunderstorm Cloudy 9 - - - -
04/05:30am 26.1 WSW 7 13 1005.5 - 0.8 - Partly cloudy - - - - -
04/05:00am 26.6 SW 5 6 1004.7 - 0.6 - Partly cloudy - - - - -
04/04:30am 27.0 S 5 7 1004.7 - 0.6 - Partly cloudy - - - - -
04/04:00am 27.1 SSE 5 7 1004.4 - 0.6 - - - - - - -
04/03:30am 27.2 SE 5 6 1004.2 - 0.6 - Partly cloudy - - - - -
04/03:00am 27.6 SE 4 7 1004.2 - 0.6 - Cloudy - - - - -
04/02:30am 27.2 E 5 10 1003.8 - 0.6 - - - - - - -
04/02:00am 26.4 SE 4 6 1004.0 - 0.6 - Partly cloudy - - - - -
04/01:30am 26.1 S 4 5 1004.5 - 0.6 - - - - - - -
04/01:00am 26.3 SW 5 7 1005.0 - 0.6 - Partly cloudy - - - - -
04/12:30am 26.3 SW 5 7 1005.4 - 0.6 - Partly cloudy - - - - -
04/12:00am 26.4 SSW 5 6 1006.0 - 0.6 - Cloudy - - - - -
 
Date/Time
EST
Temp

°C
Wind Pressure Rain
since 9am
mm
Weather Cloud Vis
km
Sea
Height
m
Swell
Dir
 
Speed
knots
Gust
knots
hPa Trend Height
m
Period
s
Dir
03/11:30pm 26.6 SSW 5 7 1006.7 - 0.6 - Partly cloudy - - - - -
03/11:13pm 26.7 SSW 6 7 1007.0 - 0.6 - Partly cloudy - - - - -
03/11:00pm 27.1 SSW 7 11 1007.2 - 0.6 - Partly cloudy - - - - -
03/10:30pm 27.0 S 4 5 1006.8 - 0.6 - Cloudy - - - - -
03/10:00pm 26.8 ENE 4 6 1006.2 - 0.6 - - - - - - -
03/09:30pm 26.9 SSW 3 4 1005.8 - 0.6 - Partly cloudy - - - - -
03/09:00pm 27.0 SSW 4 5 1005.3 F 0.6 Rain Mostly cloudy - - - - -
03/08:30pm 27.0 SW 3 5 1005.3 - 0.4 - - - - - - -
03/08:00pm 27.3 SSE 2 3 1004.8 - 0.4 - Partly cloudy - - - - -
03/07:30pm 26.8 NNE 1 4 1004.9 - 0.4 - - - - - - -

Other Formats:

Comma delimited format used in spreadsheet applications
http://www.bom.gov.au/fwo/IDQ60701/IDQ60701.94367.axf

JavaScript Object Notation format (JSON) in row-major order
http://www.bom.gov.au/fwo/IDQ60701/IDQ60701.94367.json